sensor_id;sensor_type;location;lat;lon;timestamp;pressure;altitude;pressure_sealevel;temperature;humidity
9419;BME280;4748;50.802;7.132;2023-05-21T03:32:06;100927.09;;;14.34;100.00
9419;BME280;4748;50.802;7.132;2023-05-21T03:34:31;100926.06;;;14.35;100.00
9419;BME280;4748;50.802;7.132;2023-05-21T03:36:58;100920.44;;;14.37;100.00
9419;BME280;4748;50.802;7.132;2023-05-21T03:39:24;100923.94;;;14.37;100.00
9419;BME280;4748;50.802;7.132;2023-05-21T03:41:49;100919.88;;;14.35;100.00
9419;BME280;4748;50.802;7.132;2023-05-21T03:44:15;100928.53;;;14.37;100.00
9419;BME280;4748;50.802;7.132;2023-05-21T03:46:40;100923.13;;;14.37;100.00
9419;BME280;4748;50.802;7.132;2023-05-21T03:49:06;100916.69;;;14.38;100.00
9419;BME280;4748;50.802;7.132;2023-05-21T03:51:31;100918.31;;;14.39;100.00
9419;BME280;4748;50.802;7.132;2023-05-21T03:53:58;100918.66;;;14.42;100.00
9419;BME280;4748;50.802;7.132;2023-05-21T03:56:23;100912.72;;;14.40;100.00
9419;BME280;4748;50.802;7.132;2023-05-21T03:58:50;100913.84;;;14.44;100.00
9419;BME280;4748;50.802;7.132;2023-05-21T04:01:15;100906.50;;;14.40;100.00
9419;BME280;4748;50.802;7.132;2023-05-21T04:03:41;100904.84;;;14.39;100.00
9419;BME280;4748;50.802;7.132;2023-05-21T04:06:08;100908.38;;;14.39;100.00
9419;BME280;4748;50.802;7.132;2023-05-21T04:08:34;100909.19;;;14.40;100.00
9419;BME280;4748;50.802;7.132;2023-05-21T04:11:00;100906.59;;;14.45;100.00
9419;BME280;4748;50.802;7.132;2023-05-21T04:13:26;100910.22;;;14.50;100.00
9419;BME280;4748;50.802;7.132;2023-05-21T04:15:52;100908.81;;;14.48;100.00
9419;BME280;4748;50.802;7.132;2023-05-21T04:18:18;100904.00;;;14.50;100.00
9419;BME280;4748;50.802;7.132;2023-05-21T04:20:44;100912.44;;;14.53;100.00
9419;BME280;4748;50.802;7.132;2023-05-21T04:23:10;100909.50;;;14.55;100.00
9419;BME280;4748;50.802;7.132;2023-05-21T04:25:35;100918.28;;;14.62;100.00
9419;BME280;4748;50.802;7.132;2023-05-21T04:28:02;100926.47;;;14.55;100.00
9419;BME280;4748;50.802;7.132;2023-05-21T04:30:28;100925.75;;;14.60;100.00
9419;BME280;4748;50.802;7.132;2023-05-21T04:32:53;100929.63;;;14.64;100.00
9419;BME280;4748;50.802;7.132;2023-05-21T04:35:19;100927.28;;;14.56;100.00
9419;BME280;4748;50.802;7.132;2023-05-21T04:37:45;100925.19;;;14.58;100.00
9419;BME280;4748;50.802;7.132;2023-05-21T04:40:12;100927.66;;;14.59;100.00
9419;BME280;4748;50.802;7.132;2023-05-21T04:42:45;100929.25;;;14.60;100.00
9419;BME280;4748;50.802;7.132;2023-05-21T04:45:15;100934.09;;;14.58;100.00
9419;BME280;4748;50.802;7.132;2023-05-21T04:47:41;100929.75;;;14.57;100.00
9419;BME280;4748;50.802;7.132;2023-05-21T04:50:07;100934.53;;;14.67;100.00
9419;BME280;4748;50.802;7.132;2023-05-21T04:52:33;100940.72;;;14.67;100.00
9419;BME280;4748;50.802;7.132;2023-05-21T04:54:59;100928.56;;;14.65;100.00
9419;BME280;4748;50.802;7.132;2023-05-21T04:57:26;100932.16;;;14.70;100.00
9419;BME280;4748;50.802;7.132;2023-05-21T04:59:52;100926.16;;;14.79;100.00
9419;BME280;4748;50.802;7.132;2023-05-21T05:02:18;100923.94;;;14.77;100.00
9419;BME280;4748;50.802;7.132;2023-05-21T05:04:43;100923.22;;;14.81;100.00
9419;BME280;4748;50.802;7.132;2023-05-21T05:07:09;100927.91;;;14.85;100.00
9419;BME280;4748;50.802;7.132;2023-05-21T05:09:34;100932.00;;;14.88;100.00
9419;BME280;4748;50.802;7.132;2023-05-21T05:11:59;100931.50;;;14.91;100.00
9419;BME280;4748;50.802;7.132;2023-05-21T05:14:25;100939.53;;;15.02;100.00
9419;BME280;4748;50.802;7.132;2023-05-21T05:16:50;100934.50;;;15.06;100.00
9419;BME280;4748;50.802;7.132;2023-05-21T05:19:16;100942.34;;;15.07;100.00
9419;BME280;4748;50.802;7.132;2023-05-21T05:21:41;100941.69;;;15.17;100.00
9419;BME280;4748;50.802;7.132;2023-05-21T05:24:06;100937.50;;;15.21;100.00
9419;BME280;4748;50.802;7.132;2023-05-21T05:26:32;100944.38;;;15.28;100.00
9419;BME280;4748;50.802;7.132;2023-05-21T05:28:57;100933.44;;;15.34;100.00
9419;BME280;4748;50.802;7.132;2023-05-21T05:31:22;100936.38;;;15.33;100.00
9419;BME280;4748;50.802;7.132;2023-05-21T05:33:48;100926.50;;;15.38;100.00
9419;BME280;4748;50.802;7.132;2023-05-21T05:36:13;100929.50;;;15.42;100.00
9419;BME280;4748;50.802;7.132;2023-05-21T05:38:39;100921.50;;;15.47;100.00
9419;BME280;4748;50.802;7.132;2023-05-21T05:41:04;100934.28;;;15.51;100.00
9419;BME280;4748;50.802;7.132;2023-05-21T05:43:30;100930.34;;;15.59;100.00
9419;BME280;4748;50.802;7.132;2023-05-21T05:45:55;100933.13;;;15.64;100.00
9419;BME280;4748;50.802;7.132;2023-05-21T05:48:20;100923.81;;;15.71;100.00
9419;BME280;4748;50.802;7.132;2023-05-21T05:50:46;100928.84;;;15.68;100.00
9419;BME280;4748;50.802;7.132;2023-05-21T05:53:12;100931.81;;;15.82;100.00
9419;BME280;4748;50.802;7.132;2023-05-21T05:55:38;100928.78;;;15.95;100.00
9419;BME280;4748;50.802;7.132;2023-05-21T05:58:04;100935.38;;;16.04;100.00
9419;BME280;4748;50.802;7.132;2023-05-21T06:00:29;100945.81;;;16.17;100.00
9419;BME280;4748;50.802;7.132;2023-05-21T06:02:55;100936.34;;;16.31;100.00
9419;BME280;4748;50.802;7.132;2023-05-21T06:05:20;100933.72;;;16.36;100.00
9419;BME280;4748;50.802;7.132;2023-05-21T06:07:46;100940.44;;;16.34;100.00
9419;BME280;4748;50.802;7.132;2023-05-21T06:10:11;100935.97;;;16.44;100.00
9419;BME280;4748;50.802;7.132;2023-05-21T06:12:36;100941.38;;;16.44;100.00
9419;BME280;4748;50.802;7.132;2023-05-21T06:15:02;100940.38;;;16.50;100.00
9419;BME280;4748;50.802;7.132;2023-05-21T06:17:27;100943.31;;;16.70;100.00
9419;BME280;4748;50.802;7.132;2023-05-21T06:19:53;100947.91;;;16.90;100.00
9419;BME280;4748;50.802;7.132;2023-05-21T06:22:18;100934.78;;;16.78;100.00
9419;BME280;4748;50.802;7.132;2023-05-21T06:24:43;100939.50;;;16.87;100.00
9419;BME280;4748;50.802;7.132;2023-05-21T06:27:09;100929.88;;;17.01;100.00
9419;BME280;4748;50.802;7.132;2023-05-21T06:29:34;100936.75;;;17.08;100.00
9419;BME280;4748;50.802;7.132;2023-05-21T06:32:00;100946.28;;;17.16;100.00
9419;BME280;4748;50.802;7.132;2023-05-21T06:34:25;100948.88;;;17.27;100.00
9419;BME280;4748;50.802;7.132;2023-05-21T06:36:51;100940.69;;;17.22;100.00
9419;BME280;4748;50.802;7.132;2023-05-21T06:39:16;100939.88;;;17.48;100.00
9419;BME280;4748;50.802;7.132;2023-05-21T06:41:42;100947.00;;;17.59;100.00
9419;BME280;4748;50.802;7.132;2023-05-21T06:44:07;100951.53;;;17.53;100.00
9419;BME280;4748;50.802;7.132;2023-05-21T06:46:33;100943.03;;;17.66;100.00
9419;BME280;4748;50.802;7.132;2023-05-21T06:48:59;100941.31;;;17.91;100.00
9419;BME280;4748;50.802;7.132;2023-05-21T06:51:25;100950.13;;;18.13;100.00
9419;BME280;4748;50.802;7.132;2023-05-21T06:53:50;100956.72;;;18.22;100.00
9419;BME280;4748;50.802;7.132;2023-05-21T06:56:16;100954.56;;;18.24;100.00
9419;BME280;4748;50.802;7.132;2023-05-21T06:58:41;100955.50;;;18.08;100.00
9419;BME280;4748;50.802;7.132;2023-05-21T07:01:07;100949.94;;;17.84;100.00
9419;BME280;4748;50.802;7.132;2023-05-21T07:03:32;100953.91;;;18.07;100.00
9419;BME280;4748;50.802;7.132;2023-05-21T07:05:57;100951.78;;;18.14;100.00
9419;BME280;4748;50.802;7.132;2023-05-21T07:08:23;100948.06;;;18.25;100.00
9419;BME280;4748;50.802;7.132;2023-05-21T07:10:48;100953.53;;;18.35;100.00
9419;BME280;4748;50.802;7.132;2023-05-21T07:13:14;100959.56;;;18.42;100.00
9419;BME280;4748;50.802;7.132;2023-05-21T07:15:40;100967.03;;;18.20;100.00
9419;BME280;4748;50.802;7.132;2023-05-21T07:18:05;100956.56;;;18.39;100.00
9419;BME280;4748;50.802;7.132;2023-05-21T07:20:31;100949.81;;;18.51;100.00
9419;BME280;4748;50.802;7.132;2023-05-21T07:22:56;100956.66;;;18.58;100.00
9419;BME280;4748;50.802;7.132;2023-05-21T07:25:22;100948.09;;;18.81;100.00
9419;BME280;4748;50.802;7.132;2023-05-21T07:27:47;100949.00;;;19.16;100.00
9419;BME280;4748;50.802;7.132;2023-05-21T07:30:13;100952.88;;;19.50;100.00
9419;BME280;4748;50.802;7.132;2023-05-21T07:32:38;100946.38;;;19.51;100.00
9419;BME280;4748;50.802;7.132;2023-05-21T07:35:04;100951.25;;;19.44;100.00
9419;BME280;4748;50.802;7.132;2023-05-21T07:37:29;100949.66;;;19.98;100.00
9419;BME280;4748;50.802;7.132;2023-05-21T07:39:56;100950.19;;;19.99;100.00
9419;BME280;4748;50.802;7.132;2023-05-21T07:42:22;100950.72;;;19.77;100.00
9419;BME280;4748;50.802;7.132;2023-05-21T07:44:48;100951.28;;;19.98;100.00
9419;BME280;4748;50.802;7.132;2023-05-21T07:47:13;100964.88;;;20.03;100.00
9419;BME280;4748;50.802;7.132;2023-05-21T07:49:38;100951.00;;;20.20;100.00
9419;BME280;4748;50.802;7.132;2023-05-21T07:52:04;100964.25;;;20.41;100.00
9419;BME280;4748;50.802;7.132;2023-05-21T07:54:29;100963.16;;;20.42;100.00
9419;BME280;4748;50.802;7.132;2023-05-21T07:56:55;100959.34;;;20.43;100.00
9419;BME280;4748;50.802;7.132;2023-05-21T07:59:20;100953.03;;;20.62;100.00
9419;BME280;4748;50.802;7.132;2023-05-21T08:01:46;100956.28;;;20.64;100.00
9419;BME280;4748;50.802;7.132;2023-05-21T08:04:11;100959.25;;;20.68;100.00
9419;BME280;4748;50.802;7.132;2023-05-21T08:06:36;100948.31;;;20.88;100.00
9419;BME280;4748;50.802;7.132;2023-05-21T08:09:02;100941.81;;;20.84;100.00
9419;BME280;4748;50.802;7.132;2023-05-21T08:11:28;100947.97;;;21.04;100.00
9419;BME280;4748;50.802;7.132;2023-05-21T08:13:54;100958.47;;;20.57;100.00
9419;BME280;4748;50.802;7.132;2023-05-21T08:16:19;100947.94;;;20.41;100.00
9419;BME280;4748;50.802;7.132;2023-05-21T08:18:45;100949.63;;;20.12;100.00
9419;BME280;4748;50.802;7.132;2023-05-21T08:21:10;100948.31;;;20.00;100.00
9419;BME280;4748;50.802;7.132;2023-05-21T08:23:36;100945.31;;;19.92;100.00
9419;BME280;4748;50.802;7.132;2023-05-21T08:26:02;100940.94;;;20.00;100.00
9419;BME280;4748;50.802;7.132;2023-05-21T08:28:27;100944.75;;;19.95;100.00
9419;BME280;4748;50.802;7.132;2023-05-21T08:30:53;100939.03;;;19.86;100.00
9419;BME280;4748;50.802;7.132;2023-05-21T08:33:18;100941.50;;;19.88;100.00
9419;BME280;4748;50.802;7.132;2023-05-21T08:35:44;100938.22;;;20.05;100.00
9419;BME280;4748;50.802;7.132;2023-05-21T08:38:09;100933.06;;;19.94;100.00
9419;BME280;4748;50.802;7.132;2023-05-21T08:40:35;100941.47;;;20.12;100.00
9419;BME280;4748;50.802;7.132;2023-05-21T08:43:00;100933.22;;;20.47;100.00
9419;BME280;4748;50.802;7.132;2023-05-21T08:45:26;100935.06;;;20.61;100.00
9419;BME280;4748;50.802;7.132;2023-05-21T08:47:57;100929.06;;;20.74;100.00
9419;BME280;4748;50.802;7.132;2023-05-21T08:50:25;100915.22;;;21.14;100.00
9419;BME280;4748;50.802;7.132;2023-05-21T08:52:50;100923.56;;;21.27;100.00
9419;BME280;4748;50.802;7.132;2023-05-21T08:55:17;100935.84;;;21.68;100.00
9419;BME280;4748;50.802;7.132;2023-05-21T08:57:43;100930.91;;;21.70;100.00
9419;BME280;4748;50.802;7.132;2023-05-21T09:00:09;100933.94;;;21.97;100.00
9419;BME280;4748;50.802;7.132;2023-05-21T09:02:36;100929.13;;;21.89;100.00
9419;BME280;4748;50.802;7.132;2023-05-21T09:05:05;100929.97;;;22.12;100.00
9419;BME280;4748;50.802;7.132;2023-05-21T09:07:36;100927.81;;;22.09;100.00
9419;BME280;4748;50.802;7.132;2023-05-21T09:10:06;100934.19;;;22.28;100.00
9419;BME280;4748;50.802;7.132;2023-05-21T09:12:34;100932.47;;;22.79;100.00
9419;BME280;4748;50.802;7.132;2023-05-21T09:15:00;100934.69;;;22.35;100.00
9419;BME280;4748;50.802;7.132;2023-05-21T09:17:26;100922.66;;;23.01;100.00
9419;BME280;4748;50.802;7.132;2023-05-21T09:20:12;100922.06;;;22.62;100.00
9419;BME280;4748;50.802;7.132;2023-05-21T09:22:43;100926.28;;;22.97;100.00
9419;BME280;4748;50.802;7.132;2023-05-21T09:25:11;100927.03;;;22.79;100.00
9419;BME280;4748;50.802;7.132;2023-05-21T09:27:37;100924.22;;;22.65;100.00
9419;BME280;4748;50.802;7.132;2023-05-21T09:30:04;100927.16;;;22.69;100.00
9419;BME280;4748;50.802;7.132;2023-05-21T09:32:30;100920.72;;;22.60;100.00
9419;BME280;4748;50.802;7.132;2023-05-21T09:34:55;100912.31;;;22.57;100.00
9419;BME280;4748;50.802;7.132;2023-05-21T09:37:21;100916.69;;;22.76;100.00
9419;BME280;4748;50.802;7.132;2023-05-21T09:39:47;100914.78;;;22.53;100.00
9419;BME280;4748;50.802;7.132;2023-05-21T09:42:12;100918.56;;;22.57;100.00
9419;BME280;4748;50.802;7.132;2023-05-21T09:44:38;100918.09;;;22.73;100.00
9419;BME280;4748;50.802;7.132;2023-05-21T09:47:04;100908.78;;;22.74;100.00
9419;BME280;4748;50.802;7.132;2023-05-21T09:49:29;100916.47;;;22.72;100.00
9419;BME280;4748;50.802;7.132;2023-05-21T09:51:56;100912.19;;;22.66;100.00
9419;BME280;4748;50.802;7.132;2023-05-21T09:54:30;100903.28;;;22.79;100.00
9419;BME280;4748;50.802;7.132;2023-05-21T09:56:56;100898.78;;;22.88;100.00
9419;BME280;4748;50.802;7.132;2023-05-21T09:59:21;100898.44;;;22.95;100.00
9419;BME280;4748;50.802;7.132;2023-05-21T10:01:50;100890.38;;;23.21;100.00
9419;BME280;4748;50.802;7.132;2023-05-21T10:04:16;100886.38;;;23.51;100.00
9419;BME280;4748;50.802;7.132;2023-05-21T10:06:42;100879.03;;;23.14;100.00
9419;BME280;4748;50.802;7.132;2023-05-21T10:09:11;100881.47;;;23.34;100.00
9419;BME280;4748;50.802;7.132;2023-05-21T10:11:40;100884.66;;;23.55;100.00
9419;BME280;4748;50.802;7.132;2023-05-21T10:14:11;100883.06;;;23.35;100.00
9419;BME280;4748;50.802;7.132;2023-05-21T10:16:39;100873.59;;;23.46;100.00
9419;BME280;4748;50.802;7.132;2023-05-21T10:19:05;100874.84;;;23.35;100.00
9419;BME280;4748;50.802;7.132;2023-05-21T10:21:35;100871.31;;;23.35;100.00
9419;BME280;4748;50.802;7.132;2023-05-21T10:24:01;100870.81;;;23.33;100.00
9419;BME280;4748;50.802;7.132;2023-05-21T10:26:29;100857.19;;;23.46;100.00
9419;BME280;4748;50.802;7.132;2023-05-21T10:28:55;100861.25;;;23.49;100.00
9419;BME280;4748;50.802;7.132;2023-05-21T10:31:22;100860.66;;;23.52;100.00
9419;BME280;4748;50.802;7.132;2023-05-21T10:33:48;100859.25;;;23.54;100.00
9419;BME280;4748;50.802;7.132;2023-05-21T10:36:15;100857.44;;;23.63;100.00
9419;BME280;4748;50.802;7.132;2023-05-21T10:38:43;100847.41;;;23.59;100.00
9419;BME280;4748;50.802;7.132;2023-05-21T10:41:09;100848.38;;;23.81;100.00
9419;BME280;4748;50.802;7.132;2023-05-21T10:44:11;100850.72;;;24.01;100.00
9419;BME280;4748;50.802;7.132;2023-05-21T10:46:47;100854.19;;;23.93;100.00
9419;BME280;4748;50.802;7.132;2023-05-21T10:55:00;100839.72;;;24.32;99.95
9419;BME280;4748;50.802;7.132;2023-05-21T11:00:28;100830.78;;;24.40;100.00
9419;BME280;4748;50.802;7.132;2023-05-21T11:02:56;100825.50;;;24.30;100.00
9419;BME280;4748;50.802;7.132;2023-05-21T11:05:55;100818.22;;;24.53;98.41
9419;BME280;4748;50.802;7.132;2023-05-21T11:08:23;100818.13;;;24.44;99.12
9419;BME280;4748;50.802;7.132;2023-05-21T11:10:53;100803.22;;;24.37;100.00
9419;BME280;4748;50.802;7.132;2023-05-21T11:13:19;100801.91;;;24.48;99.98
9419;BME280;4748;50.802;7.132;2023-05-21T11:23:52;100796.66;;;24.38;98.76
9419;BME280;4748;50.802;7.132;2023-05-21T11:26:19;100796.72;;;24.46;100.00
9419;BME280;4748;50.802;7.132;2023-05-21T11:31:29;100797.50;;;24.33;100.00
9419;BME280;4748;50.802;7.132;2023-05-21T11:34:21;100787.59;;;24.24;100.00
9419;BME280;4748;50.802;7.132;2023-05-21T11:39:55;100796.94;;;24.36;100.00
9419;BME280;4748;50.802;7.132;2023-05-21T11:44:55;100795.88;;;24.59;100.00
9419;BME280;4748;50.802;7.132;2023-05-21T11:47:21;100787.75;;;24.67;100.00
9419;BME280;4748;50.802;7.132;2023-05-21T11:49:47;100800.16;;;24.87;100.00
9419;BME280;4748;50.802;7.132;2023-05-21T11:52:13;100800.69;;;24.75;100.00
9419;BME280;4748;50.802;7.132;2023-05-21T11:54:43;100791.00;;;25.05;100.00
9419;BME280;4748;50.802;7.132;2023-05-21T11:57:11;100789.56;;;24.94;99.29
9419;BME280;4748;50.802;7.132;2023-05-21T11:59:38;100787.53;;;24.77;99.33
9419;BME280;4748;50.802;7.132;2023-05-21T12:02:05;100785.09;;;24.76;100.00
9419;BME280;4748;50.802;7.132;2023-05-21T12:04:31;100787.88;;;24.84;99.36
9419;BME280;4748;50.802;7.132;2023-05-21T12:07:03;100788.38;;;24.86;98.58
9419;BME280;4748;50.802;7.132;2023-05-21T12:09:29;100778.81;;;24.97;100.00
9419;BME280;4748;50.802;7.132;2023-05-21T12:11:54;100770.38;;;24.94;99.52
9419;BME280;4748;50.802;7.132;2023-05-21T12:14:20;100773.75;;;24.91;99.81
9419;BME280;4748;50.802;7.132;2023-05-21T12:16:45;100769.13;;;25.13;99.47
9419;BME280;4748;50.802;7.132;2023-05-21T12:19:11;100768.75;;;25.06;99.58
9419;BME280;4748;50.802;7.132;2023-05-21T12:21:36;100777.09;;;25.01;99.53
9419;BME280;4748;50.802;7.132;2023-05-21T12:24:02;100767.81;;;25.11;99.33
9419;BME280;4748;50.802;7.132;2023-05-21T12:26:28;100759.44;;;25.37;98.05
9419;BME280;4748;50.802;7.132;2023-05-21T12:28:54;100761.50;;;25.32;97.88
9419;BME280;4748;50.802;7.132;2023-05-21T12:31:20;100772.19;;;25.12;99.32
9419;BME280;4748;50.802;7.132;2023-05-21T12:33:48;100759.13;;;24.95;100.00
9419;BME280;4748;50.802;7.132;2023-05-21T12:36:21;100759.38;;;25.29;98.88
9419;BME280;4748;50.802;7.132;2023-05-21T12:38:48;100759.75;;;25.14;98.79
9419;BME280;4748;50.802;7.132;2023-05-21T12:41:15;100759.13;;;25.39;98.04
9419;BME280;4748;50.802;7.132;2023-05-21T12:43:40;100767.44;;;25.56;98.13
9419;BME280;4748;50.802;7.132;2023-05-21T12:46:06;100762.06;;;25.72;97.36
9419;BME280;4748;50.802;7.132;2023-05-21T12:48:31;100755.97;;;25.84;97.08
9419;BME280;4748;50.802;7.132;2023-05-21T12:50:59;100754.25;;;26.05;96.92
9419;BME280;4748;50.802;7.132;2023-05-21T12:53:35;100747.25;;;25.82;93.61
9419;BME280;4748;50.802;7.132;2023-05-21T12:56:11;100751.66;;;25.91;92.68
9419;BME280;4748;50.802;7.132;2023-05-21T12:58:36;100741.75;;;25.82;94.72
9419;BME280;4748;50.802;7.132;2023-05-21T13:01:08;100743.16;;;26.10;93.66
9419;BME280;4748;50.802;7.132;2023-05-21T13:03:35;100749.94;;;26.12;95.00
9419;BME280;4748;50.802;7.132;2023-05-21T13:06:01;100746.88;;;26.14;95.15
9419;BME280;4748;50.802;7.132;2023-05-21T13:08:27;100747.13;;;25.87;95.65
9419;BME280;4748;50.802;7.132;2023-05-21T13:10:52;100741.50;;;26.09;95.69
9419;BME280;4748;50.802;7.132;2023-05-21T13:13:18;100738.28;;;25.98;95.18
9419;BME280;4748;50.802;7.132;2023-05-21T13:15:43;100740.56;;;26.13;93.88
9419;BME280;4748;50.802;7.132;2023-05-21T13:18:08;100733.81;;;26.27;93.74
9419;BME280;4748;50.802;7.132;2023-05-21T13:20:35;100729.63;;;26.30;92.00
9419;BME280;4748;50.802;7.132;2023-05-21T13:23:00;100724.97;;;26.30;92.86
9419;BME280;4748;50.802;7.132;2023-05-21T13:25:26;100722.00;;;26.27;93.26
9419;BME280;4748;50.802;7.132;2023-05-21T13:27:54;100720.09;;;26.36;92.14
9419;BME280;4748;50.802;7.132;2023-05-21T13:30:20;100720.59;;;26.29;90.85
9419;BME280;4748;50.802;7.132;2023-05-21T13:32:46;100715.91;;;26.38;91.99
9419;BME280;4748;50.802;7.132;2023-05-21T13:35:12;100712.19;;;26.34;91.74
9419;BME280;4748;50.802;7.132;2023-05-21T13:37:40;100713.16;;;26.30;91.95
9419;BME280;4748;50.802;7.132;2023-05-21T13:40:07;100711.72;;;26.32;91.77
9419;BME280;4748;50.802;7.132;2023-05-21T13:42:35;100719.31;;;26.35;91.90
9419;BME280;4748;50.802;7.132;2023-05-21T13:45:03;100710.91;;;26.32;91.34
9419;BME280;4748;50.802;7.132;2023-05-21T13:47:28;100714.00;;;26.47;90.61
9419;BME280;4748;50.802;7.132;2023-05-21T13:49:54;100707.53;;;26.43;90.34
9419;BME280;4748;50.802;7.132;2023-05-21T13:52:19;100693.16;;;26.46;90.39
9419;BME280;4748;50.802;7.132;2023-05-21T13:54:45;100693.78;;;26.43;91.44
9419;BME280;4748;50.802;7.132;2023-05-21T13:57:11;100700.56;;;26.63;90.75
9419;BME280;4748;50.802;7.132;2023-05-21T13:59:36;100697.66;;;26.68;90.07
9419;BME280;4748;50.802;7.132;2023-05-21T14:02:01;100688.44;;;26.80;91.02
9419;BME280;4748;50.802;7.132;2023-05-21T14:04:27;100692.63;;;26.70;91.24
9419;BME280;4748;50.802;7.132;2023-05-21T14:06:53;100700.09;;;26.69;91.55
9419;BME280;4748;50.802;7.132;2023-05-21T14:09:19;100704.94;;;26.64;92.06
9419;BME280;4748;50.802;7.132;2023-05-21T14:11:45;100697.34;;;26.61;91.48
9419;BME280;4748;50.802;7.132;2023-05-21T14:14:11;100701.84;;;26.48;91.46
9419;BME280;4748;50.802;7.132;2023-05-21T14:16:42;100695.91;;;26.63;91.72
9419;BME280;4748;50.802;7.132;2023-05-21T14:19:08;100694.59;;;26.77;90.32
9419;BME280;4748;50.802;7.132;2023-05-21T14:21:33;100701.22;;;26.68;91.97
9419;BME280;4748;50.802;7.132;2023-05-21T14:23:58;100688.44;;;26.55;92.47
9419;BME280;4748;50.802;7.132;2023-05-21T14:26:24;100694.91;;;26.76;92.24
9419;BME280;4748;50.802;7.132;2023-05-21T14:28:50;100693.75;;;26.77;91.93
9419;BME280;4748;50.802;7.132;2023-05-21T14:31:16;100697.34;;;27.03;92.03
9419;BME280;4748;50.802;7.132;2023-05-21T14:33:41;100691.69;;;26.91;91.89
9419;BME280;4748;50.802;7.132;2023-05-21T14:36:06;100690.38;;;26.97;91.20
9419;BME280;4748;50.802;7.132;2023-05-21T14:38:32;100684.53;;;27.07;91.31
9419;BME280;4748;50.802;7.132;2023-05-21T14:40:57;100687.59;;;27.05;90.45
9419;BME280;4748;50.802;7.132;2023-05-21T14:43:22;100691.47;;;27.13;92.10
9419;BME280;4748;50.802;7.132;2023-05-21T14:45:48;100686.69;;;27.38;90.56
9419;BME280;4748;50.802;7.132;2023-05-21T14:48:15;100685.72;;;27.43;88.90
9419;BME280;4748;50.802;7.132;2023-05-21T14:50:42;100687.47;;;27.47;89.43
9419;BME280;4748;50.802;7.132;2023-05-21T14:53:09;100694.06;;;27.63;88.65
9419;BME280;4748;50.802;7.132;2023-05-21T14:55:35;100682.00;;;27.76;87.44
9419;BME280;4748;50.802;7.132;2023-05-21T14:58:02;100694.53;;;27.74;87.30
9419;BME280;4748;50.802;7.132;2023-05-21T15:00:29;100689.06;;;27.65;86.94
9419;BME280;4748;50.802;7.132;2023-05-21T15:02:54;100685.84;;;27.46;89.13
9419;BME280;4748;50.802;7.132;2023-05-21T15:05:20;100681.63;;;27.57;89.38
9419;BME280;4748;50.802;7.132;2023-05-21T15:07:45;100676.47;;;27.47;89.43
9419;BME280;4748;50.802;7.132;2023-05-21T15:10:11;100680.84;;;27.48;88.01
9419;BME280;4748;50.802;7.132;2023-05-21T15:12:37;100668.91;;;27.73;88.48
9419;BME280;4748;50.802;7.132;2023-05-21T15:15:03;100676.97;;;28.07;87.78
9419;BME280;4748;50.802;7.132;2023-05-21T15:17:28;100669.91;;;27.97;88.22
9419;BME280;4748;50.802;7.132;2023-05-21T15:19:54;100671.19;;;28.00;86.77
9419;BME280;4748;50.802;7.132;2023-05-21T15:22:19;100662.22;;;28.11;86.37
9419;BME280;4748;50.802;7.132;2023-05-21T15:24:44;100660.13;;;28.08;85.49
9419;BME280;4748;50.802;7.132;2023-05-21T15:27:10;100665.94;;;28.15;85.24
9419;BME280;4748;50.802;7.132;2023-05-21T15:29:35;100676.09;;;28.43;84.21
9419;BME280;4748;50.802;7.132;2023-05-21T15:32:01;100668.81;;;28.59;82.15
9419;BME280;4748;50.802;7.132;2023-05-21T15:34:30;100667.41;;;28.53;82.33
9419;BME280;4748;50.802;7.132;2023-05-21T15:36:55;100664.19;;;28.51;82.22
9419;BME280;4748;50.802;7.132;2023-05-21T15:39:22;100662.50;;;28.18;84.49
9419;BME280;4748;50.802;7.132;2023-05-21T15:41:47;100664.66;;;28.04;84.84
9419;BME280;4748;50.802;7.132;2023-05-21T15:44:12;100656.66;;;27.91;86.62
9419;BME280;4748;50.802;7.132;2023-05-21T15:46:38;100671.44;;;27.49;88.09
9419;BME280;4748;50.802;7.132;2023-05-21T15:49:03;100678.09;;;27.03;94.58
9419;BME280;4748;50.802;7.132;2023-05-21T15:51:28;100676.81;;;26.58;100.00
9419;BME280;4748;50.802;7.132;2023-05-21T15:53:54;100666.75;;;26.20;100.00
9419;BME280;4748;50.802;7.132;2023-05-21T15:56:20;100667.41;;;26.17;100.00
9419;BME280;4748;50.802;7.132;2023-05-21T15:58:46;100684.81;;;25.96;100.00
9419;BME280;4748;50.802;7.132;2023-05-21T16:01:11;100689.94;;;25.12;100.00
9419;BME280;4748;50.802;7.132;2023-05-21T16:03:36;100683.50;;;24.94;100.00
9419;BME280;4748;50.802;7.132;2023-05-21T16:06:02;100677.47;;;24.84;100.00
9419;BME280;4748;50.802;7.132;2023-05-21T16:08:28;100685.94;;;24.74;100.00
9419;BME280;4748;50.802;7.132;2023-05-21T16:10:55;100683.44;;;24.64;100.00
9419;BME280;4748;50.802;7.132;2023-05-21T16:13:20;100681.88;;;24.50;100.00
9419;BME280;4748;50.802;7.132;2023-05-21T16:15:46;100676.84;;;24.30;100.00
9419;BME280;4748;50.802;7.132;2023-05-21T16:18:11;100675.84;;;24.39;100.00
9419;BME280;4748;50.802;7.132;2023-05-21T16:20:36;100682.97;;;24.13;100.00
9419;BME280;4748;50.802;7.132;2023-05-21T16:23:01;100670.81;;;24.19;100.00
9419;BME280;4748;50.802;7.132;2023-05-21T16:25:27;100657.88;;;24.33;100.00
9419;BME280;4748;50.802;7.132;2023-05-21T16:27:53;100661.59;;;24.02;100.00
9419;BME280;4748;50.802;7.132;2023-05-21T16:30:18;100659.97;;;24.14;100.00
9419;BME280;4748;50.802;7.132;2023-05-21T16:32:43;100667.28;;;24.06;100.00
9419;BME280;4748;50.802;7.132;2023-05-21T16:35:09;100664.78;;;23.96;100.00
9419;BME280;4748;50.802;7.132;2023-05-21T16:37:34;100680.00;;;23.88;100.00
9419;BME280;4748;50.802;7.132;2023-05-21T16:40:00;100684.56;;;23.66;100.00
9419;BME280;4748;50.802;7.132;2023-05-21T16:42:25;100682.31;;;23.55;100.00
9419;BME280;4748;50.802;7.132;2023-05-21T16:44:50;100681.41;;;23.46;100.00
9419;BME280;4748;50.802;7.132;2023-05-21T16:47:16;100682.91;;;23.38;100.00
9419;BME280;4748;50.802;7.132;2023-05-21T16:49:41;100693.41;;;23.31;100.00
9419;BME280;4748;50.802;7.132;2023-05-21T16:52:06;100680.97;;;23.52;100.00
9419;BME280;4748;50.802;7.132;2023-05-21T16:54:32;100688.06;;;23.40;100.00